sensor_id;sensor_type;location;lat;lon;timestamp;P1;durP1;ratioP1;P2;durP2;ratioP2
45210;SDS011;30952;50.102;8.584;2022-09-29T10:54:58;10.1;;;6.9;;
45210;SDS011;30952;50.102;8.584;2022-09-29T10:59:57;8.4;;;6.9;;
45210;SDS011;30952;50.102;8.584;2022-09-29T11:04:58;10.5;;;7.2;;
45210;SDS011;30952;50.102;8.584;2022-09-29T11:09:58;11.3;;;8.2;;
45210;SDS011;30952;50.102;8.584;2022-09-29T11:14:58;88.2;;;57.2;;
45210;SDS011;30952;50.102;8.584;2022-09-29T11:19:59;61.6;;;39.4;;
45210;SDS011;30952;50.102;8.584;2022-09-29T11:25:05;35.2;;;26.6;;
45210;SDS011;30952;50.102;8.584;2022-09-29T11:29:59;23.1;;;17.4;;
45210;SDS011;30952;50.102;8.584;2022-09-29T11:35:02;19.0;;;13.8;;
45210;SDS011;30952;50.102;8.584;2022-09-29T11:40:00;14.0;;;11.0;;
45210;SDS011;30952;50.102;8.584;2022-09-29T11:44:58;13.5;;;8.8;;
45210;SDS011;30952;50.102;8.584;2022-09-29T11:50:01;10.2;;;7.4;;
45210;SDS011;30952;50.102;8.584;2022-09-29T11:55:01;9.5;;;6.6;;
45210;SDS011;30952;50.102;8.584;2022-09-29T12:00:02;9.8;;;6.3;;
45210;SDS011;30952;50.102;8.584;2022-09-29T12:04:59;9.4;;;6.3;;
45210;SDS011;30952;50.102;8.584;2022-09-29T12:10:02;7.8;;;4.9;;
45210;SDS011;30952;50.102;8.584;2022-09-29T12:15:01;8.0;;;5.8;;
45210;SDS011;30952;50.102;8.584;2022-09-29T12:19:59;6.2;;;4.8;;
45210;SDS011;30952;50.102;8.584;2022-09-29T12:24:58;38.3;;;25.8;;
45210;SDS011;30952;50.102;8.584;2022-09-29T12:30:00;64.2;;;44.3;;
45210;SDS011;30952;50.102;8.584;2022-09-29T12:35:00;29.1;;;20.9;;
45210;SDS011;30952;50.102;8.584;2022-09-29T12:40:00;18.9;;;10.1;;
45210;SDS011;30952;50.102;8.584;2022-09-29T12:45:00;11.8;;;6.2;;
45210;SDS011;30952;50.102;8.584;2022-09-29T12:50:00;6.8;;;4.7;;
45210;SDS011;30952;50.102;8.584;2022-09-29T12:54:59;6.7;;;3.3;;
45210;SDS011;30952;50.102;8.584;2022-09-29T13:00:01;6.5;;;4.0;;
45210;SDS011;30952;50.102;8.584;2022-09-29T13:05:01;6.4;;;4.2;;
45210;SDS011;30952;50.102;8.584;2022-09-29T13:10:03;50.1;;;32.4;;
45210;SDS011;30952;50.102;8.584;2022-09-29T13:15:05;80.2;;;52.4;;
45210;SDS011;30952;50.102;8.584;2022-09-29T13:20:05;42.3;;;27.3;;
45210;SDS011;30952;50.102;8.584;2022-09-29T13:25:00;32.9;;;17.9;;
45210;SDS011;30952;50.102;8.584;2022-09-29T13:30:02;19.3;;;12.9;;
45210;SDS011;30952;50.102;8.584;2022-09-29T13:35:00;14.0;;;8.6;;
45210;SDS011;30952;50.102;8.584;2022-09-29T13:40:01;8.2;;;4.6;;
45210;SDS011;30952;50.102;8.584;2022-09-29T13:50:11;5.2;;;2.7;;
45210;SDS011;30952;50.102;8.584;2022-09-29T13:55:13;4.6;;;2.9;;
45210;SDS011;30952;50.102;8.584;2022-09-29T14:00:04;4.3;;;2.5;;
45210;SDS011;30952;50.102;8.584;2022-09-29T14:05:01;4.4;;;2.5;;
45210;SDS011;30952;50.102;8.584;2022-09-29T14:10:03;2.6;;;2.0;;
45210;SDS011;30952;50.102;8.584;2022-09-29T14:15:00;3.7;;;2.2;;
45210;SDS011;30952;50.102;8.584;2022-09-29T14:20:02;4.3;;;2.6;;
45210;SDS011;30952;50.102;8.584;2022-09-29T14:25:22;2.9;;;2.1;;
45210;SDS011;30952;50.102;8.584;2022-09-29T14:30:19;4.0;;;1.9;;
45210;SDS011;30952;50.102;8.584;2022-09-29T14:35:03;9.2;;;2.1;;
45210;SDS011;30952;50.102;8.584;2022-09-29T14:40:01;4.2;;;2.4;;
45210;SDS011;30952;50.102;8.584;2022-09-29T14:45:02;3.0;;;2.0;;
45210;SDS011;30952;50.102;8.584;2022-09-29T14:50:04;3.1;;;2.0;;
45210;SDS011;30952;50.102;8.584;2022-09-29T14:55:04;2.6;;;1.8;;
45210;SDS011;30952;50.102;8.584;2022-09-29T15:00:05;3.2;;;1.9;;
45210;SDS011;30952;50.102;8.584;2022-09-29T15:05:11;3.6;;;2.0;;
45210;SDS011;30952;50.102;8.584;2022-09-29T15:10:05;3.0;;;1.9;;
45210;SDS011;30952;50.102;8.584;2022-09-29T15:15:04;3.0;;;2.1;;
45210;SDS011;30952;50.102;8.584;2022-09-29T15:20:05;2.3;;;1.9;;
45210;SDS011;30952;50.102;8.584;2022-09-29T15:25:07;4.9;;;2.2;;
45210;SDS011;30952;50.102;8.584;2022-09-29T15:30:04;2.3;;;1.9;;
45210;SDS011;30952;50.102;8.584;2022-09-29T15:35:04;3.2;;;1.8;;
45210;SDS011;30952;50.102;8.584;2022-09-29T15:40:04;2.4;;;1.6;;
45210;SDS011;30952;50.102;8.584;2022-09-29T15:45:06;3.9;;;1.9;;
45210;SDS011;30952;50.102;8.584;2022-09-29T15:50:11;2.9;;;1.6;;
45210;SDS011;30952;50.102;8.584;2022-09-29T15:55:04;2.5;;;1.8;;
45210;SDS011;30952;50.102;8.584;2022-09-29T16:00:17;3.1;;;2.1;;
45210;SDS011;30952;50.102;8.584;2022-09-29T16:05:08;3.0;;;1.9;;
45210;SDS011;30952;50.102;8.584;2022-09-29T16:10:07;3.0;;;1.9;;
45210;SDS011;30952;50.102;8.584;2022-09-29T16:15:06;7.5;;;2.3;;
45210;SDS011;30952;50.102;8.584;2022-09-29T16:20:06;2.6;;;1.9;;
45210;SDS011;30952;50.102;8.584;2022-09-29T16:25:07;2.4;;;1.7;;
45210;SDS011;30952;50.102;8.584;2022-09-29T16:30:15;3.2;;;2.1;;
45210;SDS011;30952;50.102;8.584;2022-09-29T16:40:16;2.5;;;1.8;;
45210;SDS011;30952;50.102;8.584;2022-09-29T16:45:12;2.3;;;2.0;;
45210;SDS011;30952;50.102;8.584;2022-09-29T16:50:09;3.0;;;1.7;;
45210;SDS011;30952;50.102;8.584;2022-09-29T16:55:15;3.8;;;1.8;;
45210;SDS011;30952;50.102;8.584;2022-09-29T17:00:09;3.3;;;1.7;;
45210;SDS011;30952;50.102;8.584;2022-09-29T17:05:07;2.3;;;1.9;;
45210;SDS011;30952;50.102;8.584;2022-09-29T17:10:11;3.6;;;1.8;;
45210;SDS011;30952;50.102;8.584;2022-09-29T17:15:08;2.2;;;1.5;;
45210;SDS011;30952;50.102;8.584;2022-09-29T17:20:08;2.5;;;1.6;;
45210;SDS011;30952;50.102;8.584;2022-09-29T17:25:07;1.6;;;1.5;;
45210;SDS011;30952;50.102;8.584;2022-09-29T17:30:08;2.2;;;1.5;;
45210;SDS011;30952;50.102;8.584;2022-09-29T17:35:07;1.8;;;1.7;;
45210;SDS011;30952;50.102;8.584;2022-09-29T17:40:14;2.4;;;1.7;;
45210;SDS011;30952;50.102;8.584;2022-09-29T17:45:08;3.7;;;1.9;;
45210;SDS011;30952;50.102;8.584;2022-09-29T17:50:14;3.2;;;1.6;;
45210;SDS011;30952;50.102;8.584;2022-09-29T17:55:09;1.7;;;1.5;;
45210;SDS011;30952;50.102;8.584;2022-09-29T18:00:12;3.0;;;1.6;;
45210;SDS011;30952;50.102;8.584;2022-09-29T18:05:09;5.0;;;2.0;;
45210;SDS011;30952;50.102;8.584;2022-09-29T18:10:14;3.0;;;2.0;;
45210;SDS011;30952;50.102;8.584;2022-09-29T18:15:10;4.7;;;1.8;;
45210;SDS011;30952;50.102;8.584;2022-09-29T18:20:11;2.9;;;1.6;;
45210;SDS011;30952;50.102;8.584;2022-09-29T18:25:11;3.9;;;2.2;;
45210;SDS011;30952;50.102;8.584;2022-09-29T18:30:13;5.5;;;1.8;;
45210;SDS011;30952;50.102;8.584;2022-09-29T18:35:11;7.3;;;2.3;;
45210;SDS011;30952;50.102;8.584;2022-09-29T18:40:10;6.2;;;2.3;;
45210;SDS011;30952;50.102;8.584;2022-09-29T18:45:11;8.2;;;2.3;;
45210;SDS011;30952;50.102;8.584;2022-09-29T18:50:11;9.4;;;2.2;;
45210;SDS011;30952;50.102;8.584;2022-09-29T18:55:10;14.7;;;2.4;;
45210;SDS011;30952;50.102;8.584;2022-09-29T19:00:11;8.1;;;2.5;;
45210;SDS011;30952;50.102;8.584;2022-09-29T19:05:11;7.2;;;2.2;;
45210;SDS011;30952;50.102;8.584;2022-09-29T19:10:11;10.7;;;2.3;;
45210;SDS011;30952;50.102;8.584;2022-09-29T19:15:10;7.9;;;2.3;;
45210;SDS011;30952;50.102;8.584;2022-09-29T19:20:11;3.2;;;2.2;;
45210;SDS011;30952;50.102;8.584;2022-09-29T19:25:11;8.1;;;2.5;;
45210;SDS011;30952;50.102;8.584;2022-09-29T19:30:12;7.9;;;2.3;;
45210;SDS011;30952;50.102;8.584;2022-09-29T19:35:13;11.8;;;2.8;;
45210;SDS011;30952;50.102;8.584;2022-09-29T19:40:13;6.4;;;2.1;;
45210;SDS011;30952;50.102;8.584;2022-09-29T19:45:13;5.1;;;2.1;;
45210;SDS011;30952;50.102;8.584;2022-09-29T19:50:12;5.7;;;2.0;;
45210;SDS011;30952;50.102;8.584;2022-09-29T19:55:13;5.0;;;2.2;;
45210;SDS011;30952;50.102;8.584;2022-09-29T20:00:14;2.5;;;1.7;;
45210;SDS011;30952;50.102;8.584;2022-09-29T20:05:14;5.5;;;2.1;;
45210;SDS011;30952;50.102;8.584;2022-09-29T20:10:14;3.8;;;2.1;;
45210;SDS011;30952;50.102;8.584;2022-09-29T20:15:14;3.6;;;1.8;;
45210;SDS011;30952;50.102;8.584;2022-09-29T20:20:14;6.4;;;1.8;;
45210;SDS011;30952;50.102;8.584;2022-09-29T20:25:14;67.5;;;42.4;;
45210;SDS011;30952;50.102;8.584;2022-09-29T20:30:13;51.2;;;34.6;;
45210;SDS011;30952;50.102;8.584;2022-09-29T20:35:14;42.1;;;29.2;;
45210;SDS011;30952;50.102;8.584;2022-09-29T20:40:14;31.4;;;24.9;;
45210;SDS011;30952;50.102;8.584;2022-09-29T20:45:14;30.9;;;20.6;;
45210;SDS011;30952;50.102;8.584;2022-09-29T20:50:13;25.4;;;17.3;;
45210;SDS011;30952;50.102;8.584;2022-09-29T20:55:13;20.6;;;15.3;;
45210;SDS011;30952;50.102;8.584;2022-09-29T21:00:14;19.0;;;14.1;;
45210;SDS011;30952;50.102;8.584;2022-09-29T21:05:15;15.7;;;11.6;;
45210;SDS011;30952;50.102;8.584;2022-09-29T21:10:14;14.7;;;9.8;;
45210;SDS011;30952;50.102;8.584;2022-09-29T21:15:14;11.9;;;8.9;;
45210;SDS011;30952;50.102;8.584;2022-09-29T21:20:15;13.6;;;8.0;;
45210;SDS011;30952;50.102;8.584;2022-09-29T21:25:15;9.7;;;7.3;;
45210;SDS011;30952;50.102;8.584;2022-09-29T21:30:15;7.6;;;5.6;;
45210;SDS011;30952;50.102;8.584;2022-09-29T21:35:15;7.1;;;5.2;;
45210;SDS011;30952;50.102;8.584;2022-09-29T21:40:15;6.9;;;5.4;;
45210;SDS011;30952;50.102;8.584;2022-09-29T21:45:15;6.5;;;4.3;;
45210;SDS011;30952;50.102;8.584;2022-09-29T21:50:16;6.1;;;4.2;;
45210;SDS011;30952;50.102;8.584;2022-09-29T21:55:17;6.2;;;3.7;;
45210;SDS011;30952;50.102;8.584;2022-09-29T22:00:18;5.3;;;3.4;;
45210;SDS011;30952;50.102;8.584;2022-09-29T22:05:18;4.9;;;3.3;;
45210;SDS011;30952;50.102;8.584;2022-09-29T22:10:18;4.5;;;3.3;;
45210;SDS011;30952;50.102;8.584;2022-09-29T22:15:19;3.7;;;2.6;;
45210;SDS011;30952;50.102;8.584;2022-09-29T22:20:19;3.6;;;2.8;;
45210;SDS011;30952;50.102;8.584;2022-09-29T22:25:20;3.4;;;2.7;;
45210;SDS011;30952;50.102;8.584;2022-09-29T22:30:21;3.9;;;2.3;;
45210;SDS011;30952;50.102;8.584;2022-09-29T22:35:21;2.9;;;2.5;;
45210;SDS011;30952;50.102;8.584;2022-09-29T22:40:22;2.7;;;2.3;;
45210;SDS011;30952;50.102;8.584;2022-09-29T22:45:22;4.0;;;2.2;;
45210;SDS011;30952;50.102;8.584;2022-09-29T22:50:22;4.3;;;2.6;;
45210;SDS011;30952;50.102;8.584;2022-09-29T22:55:21;2.5;;;2.1;;
45210;SDS011;30952;50.102;8.584;2022-09-29T23:00:21;2.3;;;2.1;;
45210;SDS011;30952;50.102;8.584;2022-09-29T23:05:21;2.9;;;2.0;;
45210;SDS011;30952;50.102;8.584;2022-09-29T23:10:21;2.9;;;2.1;;
45210;SDS011;30952;50.102;8.584;2022-09-29T23:15:21;2.5;;;2.0;;
45210;SDS011;30952;50.102;8.584;2022-09-29T23:20:22;1.9;;;1.7;;
45210;SDS011;30952;50.102;8.584;2022-09-29T23:25:22;2.6;;;1.7;;
45210;SDS011;30952;50.102;8.584;2022-09-29T23:30:22;2.5;;;1.6;;
45210;SDS011;30952;50.102;8.584;2022-09-29T23:35:21;2.8;;;2.0;;
45210;SDS011;30952;50.102;8.584;2022-09-29T23:40:21;4.4;;;2.1;;
45210;SDS011;30952;50.102;8.584;2022-09-29T23:45:23;3.4;;;1.9;;
45210;SDS011;30952;50.102;8.584;2022-09-29T23:50:21;2.2;;;1.9;;
45210;SDS011;30952;50.102;8.584;2022-09-29T23:55:22;2.0;;;1.8;;
